Terminal Aerodrome Forecast
Issued by NWS

Home | Current Version | Previous Version | Text Only | Print | Product List | Glossary On
Versions: 1 2 3 4 5 6 7 8 9 10 11 12 13 14 15 16 17 18 19 20 21 22 23 24 25 26 27 28 29 30 31 32 33 34 35 36 37 38 39 40 41 42 43
000
FTPA31 PHFO 171500 AAC
TAFITO
TAF AMD
PHTO 171542Z 1716/1812 22006KT P6SM VCSH SCT022 BKN040
      TEMPO 1716/1720 3SM SHRA BKN020
     FM172100 08008KT P6SM SCT030 BKN050
     FM180200 VRB03KT P6SM VCSH SCT030 BKN040
     FM180800 24006KT P6SM VCSH SCT025 BKN040=

USA.gov is the U.S. government's official web portal to all federal, state and local government web resources and services.